createdAt,value
2018-12-04T00:01:48.959Z,60.73
2018-12-04T00:04:22.947Z,58.77
2018-12-04T00:06:57.447Z,61.67
2018-12-04T00:09:31.749Z,61.03
2018-12-04T00:12:05.871Z,62.70
2018-12-04T00:40:08.764Z,67.30
2018-12-04T00:42:43.447Z,64.77
2018-12-04T00:45:17.427Z,62.67
2018-12-04T00:47:51.927Z,65.00
2018-12-04T00:50:26.450Z,60.97
2018-12-04T00:53:08.400Z,61.83
2018-12-04T00:55:42.485Z,58.70
2018-12-04T00:58:16.854Z,59.73
2018-12-04T01:00:55.099Z,56.47
2018-12-04T01:03:29.665Z,57.77
2018-12-04T01:06:08.097Z,57.70
2018-12-04T01:08:42.373Z,55.20
2018-12-04T01:11:16.924Z,54.50
2018-12-04T01:13:51.650Z,51.37
2018-12-04T01:16:26.213Z,54.63
2018-12-04T01:19:04.677Z,53.83
2018-12-04T01:21:38.955Z,54.20
2018-12-04T01:24:13.533Z,52.43
2018-12-04T01:26:52.055Z,53.80
2018-12-04T01:29:26.414Z,50.27
2018-12-04T01:32:07.999Z,50.33
2018-12-04T01:34:46.355Z,50.27
2018-12-04T01:37:20.538Z,48.93
2018-12-04T01:39:55.030Z,50.97
2018-12-04T01:45:02.640Z,50.83
2018-12-04T01:47:36.701Z,50.30
2018-12-04T01:50:11.100Z,50.50
2018-12-04T01:52:45.116Z,53.17
2018-12-04T01:55:19.124Z,54.40
2018-12-04T01:57:57.335Z,52.00
2018-12-04T02:00:31.855Z,54.10
2018-12-04T02:03:06.094Z,54.57
2018-12-04T02:05:47.232Z,53.13
2018-12-04T02:08:28.452Z,53.93
2018-12-04T02:11:03.139Z,52.37
2018-12-04T02:13:37.777Z,51.87
2018-12-04T02:16:11.680Z,50.03
2018-12-04T02:18:52.942Z,51.37
2018-12-04T02:21:27.219Z,51.23
2018-12-04T02:24:01.481Z,49.13
2018-12-04T02:26:39.515Z,53.10
2018-12-04T02:29:13.751Z,53.33
2018-12-04T02:31:47.890Z,49.43
2018-12-04T02:34:22.046Z,51.80
2018-12-04T02:36:56.398Z,50.37
2018-12-04T02:39:30.593Z,51.10
2018-12-04T02:42:11.784Z,48.57
2018-12-04T02:44:46.408Z,49.63
2018-12-04T02:57:31.344Z,43.77
2018-12-04T03:00:07.005Z,42.80
2018-12-04T03:02:40.934Z,44.83
2018-12-04T03:05:15.230Z,44.10
2018-12-04T03:07:49.863Z,42.93
2018-12-04T03:10:31.027Z,40.23
2018-12-04T03:13:05.183Z,43.37
2018-12-04T03:15:39.423Z,45.27
2018-12-04T03:18:18.018Z,47.53
2018-12-04T03:20:52.418Z,42.23
2018-12-04T03:23:35.159Z,41.80
2018-12-04T03:26:13.846Z,39.67
2018-12-04T03:28:48.377Z,40.37
2018-12-04T03:31:22.631Z,42.03
2018-12-04T03:33:57.005Z,43.20
2018-12-04T03:36:31.127Z,41.97
2018-12-04T03:39:07.752Z,43.13
2018-12-04T03:41:41.660Z,44.10
2018-12-04T03:44:15.947Z,44.27
2018-12-04T03:46:50.215Z,44.07
2018-12-04T03:49:24.249Z,44.23
2018-12-04T03:51:58.673Z,44.17
2018-12-04T03:54:32.926Z,43.77
2018-12-04T03:57:07.403Z,42.93
2018-12-04T03:59:41.702Z,43.27
2018-12-04T04:02:16.086Z,41.73
2018-12-04T04:04:50.415Z,41.33
2018-12-04T04:07:24.498Z,41.43
2018-12-04T04:09:58.949Z,42.43
2018-12-04T04:12:33.043Z,42.07
2018-12-04T04:15:14.268Z,41.97
2018-12-04T04:17:52.486Z,40.73
2018-12-04T04:20:26.806Z,41.33
2018-12-04T04:23:01.245Z,42.47
2018-12-04T04:25:39.583Z,40.27
2018-12-04T04:28:17.687Z,39.80
2018-12-04T04:30:52.212Z,41.67
2018-12-04T04:33:26.392Z,43.80
2018-12-04T04:36:00.810Z,41.57
2018-12-04T04:38:34.876Z,43.13
2018-12-04T04:41:13.182Z,44.13
2018-12-04T04:43:47.142Z,44.73
2018-12-04T04:46:21.335Z,44.43
2018-12-04T04:48:59.983Z,44.00
2018-12-04T04:51:33.924Z,41.37
2018-12-04T04:54:08.206Z,40.77
2018-12-04T04:56:49.543Z,41.20
2018-12-04T04:59:23.774Z,42.27
2018-12-04T05:01:57.962Z,41.00
2018-12-04T05:04:32.708Z,41.80
2018-12-04T05:07:06.511Z,40.63
2018-12-04T05:09:40.781Z,38.70
2018-12-04T05:12:19.328Z,39.83
2018-12-04T05:15:02.902Z,40.13
2018-12-04T05:17:36.849Z,40.77
2018-12-04T05:20:11.000Z,41.67
2018-12-04T05:22:49.252Z,41.07
2018-12-04T05:25:27.837Z,40.63
2018-12-04T05:28:06.183Z,42.23
2018-12-04T05:30:40.423Z,40.40
2018-12-04T05:33:14.979Z,40.33
2018-12-04T05:35:49.219Z,39.27
2018-12-04T05:38:23.590Z,42.50
2018-12-04T05:41:01.848Z,43.53
2018-12-04T05:43:35.923Z,44.27
2018-12-04T05:46:10.118Z,43.07
2018-12-04T05:48:44.489Z,41.07
2018-12-04T05:51:18.455Z,42.23
2018-12-04T05:53:52.768Z,44.97
2018-12-04T05:56:27.187Z,43.20
2018-12-04T05:59:05.421Z,44.67
2018-12-04T06:01:46.570Z,46.67
2018-12-04T06:04:24.755Z,43.00
2018-12-04T06:07:03.254Z,44.13
2018-12-04T06:09:37.213Z,44.67
2018-12-04T06:12:11.254Z,44.63
2018-12-04T06:14:45.375Z,44.50
2018-12-04T06:17:19.351Z,41.20
2018-12-04T06:19:53.717Z,43.70
2018-12-04T06:22:35.667Z,43.27
2018-12-04T06:25:09.873Z,44.13
2018-12-04T06:27:48.522Z,43.27
2018-12-04T06:30:23.498Z,41.70
2018-12-04T06:32:57.893Z,42.87
2018-12-04T06:35:33.000Z,40.03
2018-12-04T06:38:11.412Z,68.57
2018-12-04T06:40:45.895Z,78.97
2018-12-04T06:43:24.077Z,65.73
2018-12-04T06:45:58.450Z,54.07
2018-12-04T06:48:32.675Z,48.43
2018-12-04T06:51:07.193Z,50.03
2018-12-04T06:53:41.731Z,45.67
2018-12-04T06:56:15.925Z,43.97
2018-12-04T06:58:51.646Z,44.43
2018-12-04T07:01:25.675Z,43.50
2018-12-04T07:04:05.398Z,43.27
2018-12-04T07:06:39.737Z,43.67
2018-12-04T07:09:19.081Z,44.53
2018-12-04T07:12:02.436Z,41.73
2018-12-04T07:14:34.846Z,41.67
2018-12-04T07:17:09.236Z,42.47
2018-12-04T07:19:47.202Z,41.10
2018-12-04T07:22:25.457Z,45.93
2018-12-04T07:25:08.045Z,56.70
2018-12-04T07:27:42.218Z,51.43
2018-12-04T07:30:20.568Z,49.83
2018-12-04T07:32:54.958Z,62.97
2018-12-04T07:35:28.919Z,57.60
2018-12-04T07:38:03.253Z,60.33
2018-12-04T07:40:38.014Z,62.20
2018-12-04T07:43:12.223Z,67.67
2018-12-04T07:45:46.597Z,68.13
2018-12-04T07:48:21.001Z,69.63
2018-12-04T07:50:55.500Z,68.57
2018-12-04T07:53:29.835Z,67.93
2018-12-04T07:56:04.195Z,65.17
2018-12-04T07:58:38.688Z,68.13
2018-12-04T08:01:12.994Z,65.00
2018-12-04T08:03:56.671Z,73.73
2018-12-04T08:06:30.771Z,72.17
2018-12-04T08:09:11.958Z,68.07
2018-12-04T08:11:46.455Z,62.10
2018-12-04T08:14:24.907Z,60.27
2018-12-04T08:16:59.047Z,58.83
2018-12-04T08:19:33.304Z,56.97
2018-12-04T08:22:07.544Z,56.53
2018-12-04T08:24:41.991Z,58.77
2018-12-04T08:27:23.713Z,56.40
2018-12-04T08:30:01.666Z,58.07
2018-12-04T08:32:35.754Z,56.00
2018-12-04T08:35:11.707Z,55.57
2018-12-04T08:37:46.127Z,56.00
2018-12-04T08:40:20.079Z,56.67
2018-12-04T08:42:54.476Z,55.77
2018-12-04T08:45:28.670Z,52.03
2018-12-04T08:48:02.782Z,54.97
2018-12-04T08:50:36.862Z,54.10
2018-12-04T08:53:11.261Z,54.20
2018-12-04T08:55:45.702Z,55.87
2018-12-04T08:58:19.603Z,51.13
2018-12-04T09:00:58.292Z,53.97
2018-12-04T09:03:32.598Z,52.20
2018-12-04T09:06:13.977Z,44.00
2018-12-04T09:13:57.642Z,66.47
2018-12-04T09:16:31.787Z,61.00
2018-12-04T09:19:06.218Z,61.00
2018-12-04T09:21:47.356Z,59.73
2018-12-04T09:24:21.999Z,56.77
2018-12-04T09:27:05.370Z,58.03
2018-12-04T09:29:36.732Z,62.30
2018-12-04T09:32:11.288Z,63.70
2018-12-04T09:34:52.552Z,64.07
2018-12-04T09:37:33.577Z,64.63
2018-12-04T09:40:08.799Z,64.87
2018-12-04T09:42:43.408Z,60.80
2018-12-04T09:45:17.695Z,61.53
2018-12-04T09:47:55.777Z,61.20
2018-12-04T09:50:30.291Z,61.63
2018-12-04T09:53:04.519Z,59.50
2018-12-04T09:55:38.678Z,62.20
2018-12-04T09:58:12.884Z,63.90
2018-12-04T10:00:47.030Z,64.53
2018-12-04T10:03:21.190Z,62.63
2018-12-04T10:05:55.659Z,61.93
2018-12-04T10:08:29.980Z,61.80
2018-12-04T10:11:04.707Z,63.43
2018-12-04T10:13:38.817Z,62.80
2018-12-04T10:16:13.387Z,58.27
2018-12-04T10:18:47.836Z,54.67
2018-12-04T10:21:26.705Z,55.60
2018-12-04T10:24:01.315Z,44.10
2018-12-04T10:26:35.688Z,23.57
2018-12-04T10:29:10.378Z,11.37
2018-12-04T10:31:44.560Z,1.50
2018-12-04T10:34:18.438Z,0.93
2018-12-04T10:36:52.647Z,1.13
2018-12-04T10:39:26.855Z,1.00
2018-12-04T10:42:04.976Z,0.80
2018-12-04T10:44:39.324Z,0.70
2018-12-04T10:47:13.763Z,0.70
2018-12-04T10:49:47.762Z,0.80
2018-12-04T10:52:22.411Z,0.70
2018-12-04T10:54:56.722Z,0.80
2018-12-04T10:57:38.029Z,0.70
2018-12-04T11:00:16.434Z,0.67
2018-12-04T11:02:50.743Z,0.77
2018-12-04T11:05:32.125Z,0.60
2018-12-04T11:08:06.549Z,0.80
2018-12-04T11:10:40.797Z,0.80
2018-12-04T11:13:15.120Z,0.80
2018-12-04T11:15:49.397Z,0.70
2018-12-04T11:18:23.633Z,0.80
2018-12-04T11:21:08.045Z,0.83
2018-12-04T11:23:42.054Z,1.20
2018-12-04T11:26:16.565Z,0.80
2018-12-04T11:28:50.648Z,0.70
2018-12-04T11:31:25.050Z,0.80
2018-12-04T11:34:03.553Z,0.90
2018-12-04T11:36:37.843Z,1.07
2018-12-04T11:39:12.090Z,0.63
2018-12-04T11:41:46.253Z,1.07
2018-12-04T11:44:20.499Z,0.70
2018-12-04T11:46:54.717Z,1.03
2018-12-04T11:49:29.026Z,1.20
2018-12-04T11:52:03.406Z,1.27
2018-12-04T11:54:37.722Z,1.10
2018-12-04T11:57:16.147Z,1.10
2018-12-04T11:59:50.283Z,1.67
2018-12-04T12:02:24.725Z,2.73
2018-12-04T12:04:58.889Z,2.20
2018-12-04T12:07:33.203Z,0.90
2018-12-04T12:10:07.615Z,1.00
2018-12-04T12:12:41.850Z,0.73
2018-12-04T12:15:19.891Z,0.87
2018-12-04T12:23:00.198Z,0.80
2018-12-04T12:25:34.494Z,1.00
2018-12-04T12:28:12.566Z,1.03
2018-12-04T12:30:50.901Z,0.93
2018-12-04T12:33:32.259Z,1.90
2018-12-04T12:36:06.824Z,1.27
2018-12-04T12:38:40.956Z,1.07
2018-12-04T12:41:15.146Z,1.07
2018-12-04T12:43:49.633Z,1.10
2018-12-04T12:46:23.917Z,1.20
2018-12-04T12:48:58.355Z,0.90
2018-12-04T12:51:32.354Z,1.50
2018-12-04T12:54:11.271Z,2.70
2018-12-04T12:56:45.716Z,3.70
2018-12-04T12:59:20.148Z,2.50
2018-12-04T13:01:58.380Z,5.27
2018-12-04T13:04:32.335Z,2.37
2018-12-04T13:07:06.827Z,1.70
2018-12-04T13:09:48.379Z,1.10
2018-12-04T13:12:22.579Z,0.93
2018-12-04T13:15:04.102Z,1.27
2018-12-04T13:17:38.089Z,1.40
2018-12-04T13:20:12.283Z,1.30
2018-12-04T13:22:50.572Z,1.10
2018-12-04T13:27:57.904Z,1.00
2018-12-04T13:30:36.213Z,0.90
2018-12-04T13:33:14.705Z,1.43
2018-12-04T13:35:48.966Z,1.20
2018-12-04T13:38:23.366Z,0.97
2018-12-04T13:40:58.013Z,1.10
2018-12-04T13:43:32.148Z,1.23
2018-12-04T13:46:07.067Z,1.50
2018-12-04T13:48:41.037Z,1.30
2018-12-04T13:51:15.546Z,1.40
2018-12-04T13:53:49.507Z,1.70
2018-12-04T13:56:24.039Z,1.60
2018-12-04T13:58:58.216Z,1.60
2018-12-04T14:01:32.406Z,1.60
2018-12-04T14:04:16.988Z,1.43
2018-12-04T14:06:50.485Z,2.10
2018-12-04T14:09:26.119Z,1.90
2018-12-04T14:12:00.333Z,2.13
2018-12-04T14:14:34.825Z,2.20
2018-12-04T14:17:13.028Z,6.77
2018-12-04T14:19:51.132Z,6.90
2018-12-04T14:22:29.219Z,2.80
2018-12-04T14:25:03.733Z,4.20
2018-12-04T14:30:08.181Z,4.03
2018-12-04T14:32:43.818Z,3.47
2018-12-04T14:35:24.682Z,8.43
2018-12-04T14:38:02.955Z,6.13
2018-12-04T14:40:37.287Z,2.73
2018-12-04T14:43:11.998Z,16.80
2018-12-04T14:45:46.700Z,19.30
2018-12-04T14:48:21.046Z,3.50
2018-12-04T14:50:55.413Z,2.00
2018-12-04T14:53:38.143Z,2.80
2018-12-04T14:56:12.270Z,1.70
2018-12-04T14:58:46.548Z,1.13
2018-12-04T15:01:21.317Z,1.63
2018-12-04T15:03:55.741Z,2.40
2018-12-04T15:06:29.836Z,2.10
2018-12-04T15:09:05.756Z,2.57
2018-12-04T15:11:40.196Z,2.30
2018-12-04T15:14:14.208Z,1.50
2018-12-04T15:16:54.867Z,4.43
2018-12-04T15:19:24.929Z,1.63
2018-12-04T15:21:59.375Z,1.63
2018-12-04T15:24:33.496Z,1.50
2018-12-04T15:27:07.830Z,2.20
2018-12-04T15:29:42.094Z,2.23
2018-12-04T15:32:21.302Z,1.67
2018-12-04T15:34:55.941Z,1.60
2018-12-04T15:37:30.833Z,1.50
2018-12-04T15:40:06.233Z,2.10
2018-12-04T15:42:40.452Z,1.90
2018-12-04T15:45:18.853Z,2.93
2018-12-04T15:47:56.817Z,2.33
2018-12-04T15:50:32.242Z,2.20
2018-12-04T15:53:06.374Z,2.27
2018-12-04T15:55:40.825Z,2.30
2018-12-04T15:58:15.174Z,2.27
2018-12-04T16:00:49.344Z,6.23
2018-12-04T16:03:23.412Z,12.27
2018-12-04T16:05:57.691Z,22.60
2018-12-04T16:08:32.103Z,5.50
2018-12-04T16:11:06.186Z,18.00
2018-12-04T16:13:40.406Z,4.37
2018-12-04T16:16:14.648Z,9.73
2018-12-04T16:18:48.951Z,4.97
2018-12-04T16:21:23.260Z,3.27
2018-12-04T16:23:57.377Z,2.83
2018-12-04T16:26:31.388Z,2.17
2018-12-04T16:29:13.122Z,2.83
2018-12-04T16:31:51.069Z,3.97
2018-12-04T16:34:25.337Z,3.10
2018-12-04T16:36:59.525Z,2.40
2018-12-04T16:39:33.788Z,3.80
2018-12-04T16:42:08.173Z,3.93
2018-12-04T16:44:42.653Z,5.43
2018-12-04T16:47:17.251Z,8.47
2018-12-04T16:49:55.512Z,4.90
2018-12-04T16:52:29.808Z,4.90
2018-12-04T16:55:11.135Z,3.83
2018-12-04T16:57:45.248Z,2.93
2018-12-04T17:00:19.503Z,3.37
2018-12-04T17:02:53.913Z,4.13
2018-12-04T17:05:28.135Z,3.47
2018-12-04T17:08:02.393Z,3.77
2018-12-04T17:10:36.256Z,4.50
2018-12-04T17:13:10.478Z,5.07
2018-12-04T17:15:44.610Z,5.13
2018-12-04T17:18:19.204Z,36.40
2018-12-04T17:20:53.427Z,6.53
2018-12-04T17:23:27.640Z,4.20
2018-12-04T17:26:01.875Z,5.03
2018-12-04T17:28:40.314Z,3.40
2018-12-04T17:31:14.775Z,3.20
2018-12-04T17:33:49.018Z,3.43
2018-12-04T17:36:23.022Z,3.93
2018-12-04T17:38:57.316Z,4.43
2018-12-04T17:41:31.364Z,3.70
2018-12-04T17:44:09.306Z,4.33
2018-12-04T17:46:43.958Z,4.93
2018-12-04T17:49:18.065Z,4.00
2018-12-04T17:51:52.413Z,4.27
2018-12-04T17:54:26.431Z,4.00
2018-12-04T17:57:01.044Z,3.87
2018-12-04T17:59:39.884Z,3.27
2018-12-04T18:02:18.282Z,3.73
2018-12-04T18:04:52.491Z,3.33
2018-12-04T18:07:26.629Z,4.63
2018-12-04T18:10:01.133Z,6.60
2018-12-04T18:12:35.346Z,5.47
2018-12-04T18:15:09.923Z,3.50
2018-12-04T18:17:44.467Z,3.27
2018-12-04T18:20:19.011Z,3.33
2018-12-04T18:22:53.350Z,4.67
2018-12-04T18:25:31.660Z,4.13
2018-12-04T18:28:06.009Z,4.60
2018-12-04T18:30:40.115Z,2.77
2018-12-04T18:33:14.035Z,3.73
2018-12-04T18:35:55.257Z,2.43
2018-12-04T18:38:29.796Z,2.70
2018-12-04T18:41:04.477Z,2.90
2018-12-04T18:43:39.646Z,3.40
2018-12-04T18:46:13.732Z,2.60
2018-12-04T18:48:48.010Z,8.50
2018-12-04T18:51:22.645Z,74.07
2018-12-04T18:53:56.628Z,21.50
2018-12-04T18:56:30.864Z,6.50
2018-12-04T18:59:05.645Z,8.67
2018-12-04T19:01:40.353Z,5.60
2018-12-04T19:04:15.075Z,8.43
2018-12-04T19:06:49.335Z,4.63
2018-12-04T19:09:23.605Z,5.73
2018-12-04T19:11:58.559Z,10.63
2018-12-04T19:14:32.706Z,6.63
2018-12-04T19:17:06.980Z,5.07
2018-12-04T19:19:41.350Z,6.67
2018-12-04T19:22:15.684Z,5.10
2018-12-04T19:24:50.132Z,5.17
2018-12-04T19:27:24.673Z,5.67
2018-12-04T19:29:59.625Z,5.60
2018-12-04T19:32:34.994Z,5.10
2018-12-04T19:35:11.523Z,6.13
2018-12-04T19:37:53.206Z,4.50
2018-12-04T19:40:27.136Z,5.30
2018-12-04T19:43:02.425Z,5.77
2018-12-04T19:45:40.820Z,5.77
2018-12-04T19:48:19.235Z,5.43
2018-12-04T19:50:53.729Z,5.40
2018-12-04T19:53:32.575Z,5.30
2018-12-04T19:56:14.357Z,8.47
2018-12-04T19:58:49.478Z,37.77
2018-12-04T20:01:23.925Z,9.97
2018-12-04T20:03:58.118Z,3.90
2018-12-04T20:06:39.420Z,3.97
2018-12-04T20:09:13.984Z,5.03
2018-12-04T20:11:48.421Z,4.17
2018-12-04T20:14:22.515Z,4.23
2018-12-04T20:16:57.269Z,4.73
2018-12-04T20:19:32.154Z,4.27
2018-12-04T20:22:06.408Z,4.57
2018-12-04T20:24:40.527Z,4.17
2018-12-04T20:27:15.052Z,4.60
2018-12-04T20:29:49.253Z,6.80
2018-12-04T20:32:23.678Z,5.07
2018-12-04T20:34:57.792Z,4.80
2018-12-04T20:37:39.357Z,4.90
2018-12-04T20:40:13.490Z,5.03
2018-12-04T20:42:51.604Z,4.43
2018-12-04T20:58:09.867Z,4.73
2018-12-04T21:00:51.569Z,5.23
2018-12-04T21:03:29.784Z,7.40
2018-12-04T21:06:08.051Z,5.33
2018-12-04T21:08:49.323Z,5.33
2018-12-04T21:11:23.710Z,5.30
2018-12-04T21:13:58.169Z,5.67
2018-12-04T21:16:36.939Z,5.60
2018-12-04T21:19:11.969Z,5.37
2018-12-04T21:21:46.632Z,5.60
2018-12-04T21:24:21.626Z,5.70
2018-12-04T21:27:00.260Z,5.97
2018-12-04T21:29:40.006Z,5.87
2018-12-04T21:32:23.753Z,5.97
2018-12-04T21:35:03.755Z,6.20
2018-12-04T21:37:43.261Z,8.83
2018-12-04T21:40:22.054Z,8.23
2018-12-04T21:43:01.362Z,8.37
2018-12-04T21:45:40.526Z,6.97
2018-12-04T21:48:23.522Z,45.40
2018-12-04T21:50:58.217Z,15.97
2018-12-04T21:53:32.436Z,15.40
2018-12-04T21:56:06.445Z,7.07
2018-12-04T22:06:18.890Z,6.03
2018-12-04T22:08:53.007Z,6.73
2018-12-04T22:11:27.777Z,6.43
2018-12-04T22:14:05.862Z,6.73
2018-12-04T22:16:40.361Z,7.20
2018-12-04T22:19:14.792Z,6.80
2018-12-04T22:21:53.323Z,5.97
2018-12-04T22:24:27.214Z,7.77
2018-12-04T22:27:01.467Z,7.70
2018-12-04T22:29:39.463Z,7.50
2018-12-04T22:32:13.813Z,6.80
2018-12-04T22:34:58.193Z,7.23
2018-12-04T22:37:32.316Z,6.80
2018-12-04T22:40:07.352Z,7.17
2018-12-04T22:42:42.072Z,7.77
2018-12-04T22:45:26.812Z,7.27
2018-12-04T22:48:04.981Z,6.57
2018-12-04T22:50:39.023Z,15.10
2018-12-04T22:53:13.168Z,6.93
2018-12-04T22:55:47.334Z,7.03
2018-12-04T22:58:21.663Z,7.30
2018-12-04T23:00:56.076Z,6.40
2018-12-04T23:03:30.945Z,7.37
2018-12-04T23:06:12.466Z,7.27
2018-12-04T23:08:51.163Z,7.57
2018-12-04T23:11:25.543Z,6.63
2018-12-04T23:14:10.652Z,6.60
2018-12-04T23:16:45.510Z,7.00
2018-12-04T23:19:19.776Z,6.73
2018-12-04T23:21:58.103Z,6.10
2018-12-04T23:24:32.383Z,6.70
2018-12-04T23:27:10.603Z,6.30
2018-12-04T23:29:44.955Z,6.67
2018-12-04T23:32:18.746Z,7.27
2018-12-04T23:34:52.764Z,6.87
2018-12-04T23:37:27.008Z,6.93
2018-12-04T23:40:06.633Z,6.57
2018-12-04T23:42:41.019Z,6.57
2018-12-04T23:45:15.082Z,6.40
2018-12-04T23:47:49.539Z,7.83
2018-12-04T23:50:23.888Z,6.40
2018-12-04T23:52:58.208Z,7.00
2018-12-04T23:55:32.342Z,6.23
2018-12-04T23:58:07.220Z,5.97
